sensor_id;sensor_type;location;lat;lon;timestamp;P1;durP1;ratioP1;P2;durP2;ratioP2
20363;SDS011;10340;53.664;9.908;2022-11-30T00:02:05;54.10;;;28.07;;
20363;SDS011;10340;53.664;9.908;2022-11-30T00:04:32;53.83;;;29.57;;
20363;SDS011;10340;53.664;9.908;2022-11-30T00:06:59;52.23;;;28.43;;
20363;SDS011;10340;53.664;9.908;2022-11-30T00:09:26;52.23;;;30.17;;
20363;SDS011;10340;53.664;9.908;2022-11-30T00:11:53;53.27;;;29.70;;
20363;SDS011;10340;53.664;9.908;2022-11-30T00:14:21;53.50;;;30.27;;
20363;SDS011;10340;53.664;9.908;2022-11-30T00:16:48;55.50;;;29.87;;
20363;SDS011;10340;53.664;9.908;2022-11-30T00:19:15;56.90;;;32.03;;
20363;SDS011;10340;53.664;9.908;2022-11-30T00:21:42;56.43;;;30.33;;
20363;SDS011;10340;53.664;9.908;2022-11-30T00:24:09;58.73;;;30.80;;
20363;SDS011;10340;53.664;9.908;2022-11-30T00:26:36;55.43;;;30.77;;
20363;SDS011;10340;53.664;9.908;2022-11-30T00:29:03;51.67;;;29.77;;
20363;SDS011;10340;53.664;9.908;2022-11-30T00:31:32;56.93;;;30.80;;
20363;SDS011;10340;53.664;9.908;2022-11-30T00:33:59;55.97;;;30.57;;
20363;SDS011;10340;53.664;9.908;2022-11-30T00:36:25;54.67;;;29.07;;
20363;SDS011;10340;53.664;9.908;2022-11-30T00:38:52;58.10;;;29.30;;
20363;SDS011;10340;53.664;9.908;2022-11-30T00:41:19;52.10;;;30.47;;
20363;SDS011;10340;53.664;9.908;2022-11-30T00:43:47;57.03;;;30.37;;
20363;SDS011;10340;53.664;9.908;2022-11-30T00:46:14;55.00;;;29.17;;
20363;SDS011;10340;53.664;9.908;2022-11-30T00:48:42;63.00;;;31.50;;
20363;SDS011;10340;53.664;9.908;2022-11-30T00:51:10;56.03;;;29.67;;
20363;SDS011;10340;53.664;9.908;2022-11-30T00:53:37;53.13;;;28.70;;
20363;SDS011;10340;53.664;9.908;2022-11-30T00:56:05;50.57;;;29.07;;
20363;SDS011;10340;53.664;9.908;2022-11-30T00:58:33;52.43;;;29.77;;
20363;SDS011;10340;53.664;9.908;2022-11-30T01:01:00;58.13;;;29.90;;
20363;SDS011;10340;53.664;9.908;2022-11-30T01:03:27;56.47;;;29.47;;
20363;SDS011;10340;53.664;9.908;2022-11-30T01:06:01;60.10;;;31.03;;
20363;SDS011;10340;53.664;9.908;2022-11-30T01:08:31;58.40;;;29.00;;
20363;SDS011;10340;53.664;9.908;2022-11-30T01:11:03;53.80;;;29.40;;
20363;SDS011;10340;53.664;9.908;2022-11-30T01:13:36;50.23;;;29.37;;
20363;SDS011;10340;53.664;9.908;2022-11-30T01:16:07;59.63;;;30.60;;
20363;SDS011;10340;53.664;9.908;2022-11-30T01:18:35;53.23;;;28.33;;
20363;SDS011;10340;53.664;9.908;2022-11-30T01:21:05;53.17;;;29.70;;
20363;SDS011;10340;53.664;9.908;2022-11-30T01:23:33;49.93;;;29.43;;
20363;SDS011;10340;53.664;9.908;2022-11-30T01:26:00;53.73;;;29.63;;
20363;SDS011;10340;53.664;9.908;2022-11-30T01:28:28;60.03;;;31.27;;
20363;SDS011;10340;53.664;9.908;2022-11-30T01:30:55;55.10;;;30.47;;
20363;SDS011;10340;53.664;9.908;2022-11-30T01:33:23;50.03;;;29.87;;
20363;SDS011;10340;53.664;9.908;2022-11-30T01:35:57;51.87;;;29.40;;
20363;SDS011;10340;53.664;9.908;2022-11-30T01:38:26;55.87;;;29.40;;
20363;SDS011;10340;53.664;9.908;2022-11-30T01:40:56;55.53;;;29.03;;
20363;SDS011;10340;53.664;9.908;2022-11-30T01:43:34;59.90;;;30.17;;
20363;SDS011;10340;53.664;9.908;2022-11-30T01:46:04;54.13;;;30.50;;
20363;SDS011;10340;53.664;9.908;2022-11-30T01:48:42;56.60;;;29.93;;
20363;SDS011;10340;53.664;9.908;2022-11-30T01:51:10;56.43;;;29.47;;
20363;SDS011;10340;53.664;9.908;2022-11-30T01:53:38;51.47;;;28.27;;
20363;SDS011;10340;53.664;9.908;2022-11-30T01:56:06;64.30;;;30.30;;
20363;SDS011;10340;53.664;9.908;2022-11-30T01:58:33;57.67;;;30.30;;
20363;SDS011;10340;53.664;9.908;2022-11-30T02:01:00;57.07;;;30.70;;
20363;SDS011;10340;53.664;9.908;2022-11-30T02:03:29;57.67;;;30.30;;
20363;SDS011;10340;53.664;9.908;2022-11-30T02:06:01;53.63;;;30.13;;
20363;SDS011;10340;53.664;9.908;2022-11-30T02:08:28;56.07;;;29.83;;
20363;SDS011;10340;53.664;9.908;2022-11-30T02:10:58;57.13;;;30.63;;
20363;SDS011;10340;53.664;9.908;2022-11-30T02:13:32;54.70;;;29.63;;
20363;SDS011;10340;53.664;9.908;2022-11-30T02:16:12;54.00;;;28.47;;
20363;SDS011;10340;53.664;9.908;2022-11-30T02:18:48;54.87;;;30.47;;
20363;SDS011;10340;53.664;9.908;2022-11-30T02:21:23;56.30;;;29.67;;
20363;SDS011;10340;53.664;9.908;2022-11-30T02:24:07;58.20;;;30.60;;
20363;SDS011;10340;53.664;9.908;2022-11-30T02:26:59;52.33;;;28.80;;
20363;SDS011;10340;53.664;9.908;2022-11-30T02:29:48;54.50;;;29.77;;
20363;SDS011;10340;53.664;9.908;2022-11-30T02:32:22;57.57;;;28.80;;
20363;SDS011;10340;53.664;9.908;2022-11-30T02:34:52;63.90;;;30.93;;
20363;SDS011;10340;53.664;9.908;2022-11-30T02:37:21;52.47;;;29.20;;
20363;SDS011;10340;53.664;9.908;2022-11-30T02:39:50;55.67;;;30.80;;
20363;SDS011;10340;53.664;9.908;2022-11-30T02:42:17;53.27;;;29.97;;
20363;SDS011;10340;53.664;9.908;2022-11-30T02:44:44;49.23;;;29.20;;
20363;SDS011;10340;53.664;9.908;2022-11-30T02:47:18;54.77;;;29.93;;
20363;SDS011;10340;53.664;9.908;2022-11-30T02:49:49;55.67;;;29.50;;
20363;SDS011;10340;53.664;9.908;2022-11-30T02:52:21;59.63;;;30.50;;
20363;SDS011;10340;53.664;9.908;2022-11-30T02:54:51;50.20;;;28.60;;
20363;SDS011;10340;53.664;9.908;2022-11-30T02:57:18;54.08;;;29.38;;
20363;SDS011;10340;53.664;9.908;2022-11-30T02:59:45;55.40;;;31.10;;
20363;SDS011;10340;53.664;9.908;2022-11-30T03:02:12;55.20;;;30.00;;
20363;SDS011;10340;53.664;9.908;2022-11-30T03:04:41;52.60;;;29.17;;
20363;SDS011;10340;53.664;9.908;2022-11-30T03:07:08;55.47;;;31.17;;
20363;SDS011;10340;53.664;9.908;2022-11-30T03:09:35;52.53;;;29.87;;
20363;SDS011;10340;53.664;9.908;2022-11-30T03:12:02;55.50;;;29.97;;
20363;SDS011;10340;53.664;9.908;2022-11-30T03:14:29;57.17;;;29.87;;
20363;SDS011;10340;53.664;9.908;2022-11-30T03:16:56;58.07;;;29.57;;
20363;SDS011;10340;53.664;9.908;2022-11-30T03:19:23;59.80;;;29.60;;
20363;SDS011;10340;53.664;9.908;2022-11-30T03:21:51;56.57;;;30.23;;
20363;SDS011;10340;53.664;9.908;2022-11-30T03:24:18;58.40;;;32.27;;
20363;SDS011;10340;53.664;9.908;2022-11-30T03:26:45;55.40;;;30.70;;
20363;SDS011;10340;53.664;9.908;2022-11-30T03:29:12;58.80;;;28.93;;
20363;SDS011;10340;53.664;9.908;2022-11-30T03:31:39;54.20;;;30.63;;
20363;SDS011;10340;53.664;9.908;2022-11-30T03:34:06;62.23;;;30.27;;
20363;SDS011;10340;53.664;9.908;2022-11-30T03:36:33;54.33;;;28.73;;
20363;SDS011;10340;53.664;9.908;2022-11-30T03:39:02;51.15;;;28.42;;
20363;SDS011;10340;53.664;9.908;2022-11-30T03:41:29;58.77;;;31.00;;
20363;SDS011;10340;53.664;9.908;2022-11-30T03:43:56;60.70;;;30.73;;
20363;SDS011;10340;53.664;9.908;2022-11-30T03:46:23;59.70;;;29.00;;
20363;SDS011;10340;53.664;9.908;2022-11-30T03:48:51;54.87;;;30.17;;
20363;SDS011;10340;53.664;9.908;2022-11-30T03:51:18;53.17;;;27.57;;
20363;SDS011;10340;53.664;9.908;2022-11-30T03:53:45;57.87;;;29.93;;
20363;SDS011;10340;53.664;9.908;2022-11-30T03:56:14;63.50;;;31.97;;
20363;SDS011;10340;53.664;9.908;2022-11-30T03:58:41;55.80;;;29.07;;
20363;SDS011;10340;53.664;9.908;2022-11-30T04:01:09;58.60;;;29.67;;
20363;SDS011;10340;53.664;9.908;2022-11-30T04:03:37;59.17;;;30.07;;
20363;SDS011;10340;53.664;9.908;2022-11-30T04:06:05;64.07;;;30.97;;
20363;SDS011;10340;53.664;9.908;2022-11-30T04:08:33;63.37;;;30.93;;
20363;SDS011;10340;53.664;9.908;2022-11-30T04:11:01;66.87;;;34.63;;
20363;SDS011;10340;53.664;9.908;2022-11-30T04:13:30;64.17;;;31.90;;
20363;SDS011;10340;53.664;9.908;2022-11-30T04:15:58;55.80;;;29.60;;
20363;SDS011;10340;53.664;9.908;2022-11-30T04:18:26;70.07;;;31.80;;
20363;SDS011;10340;53.664;9.908;2022-11-30T04:20:55;64.13;;;30.77;;
20363;SDS011;10340;53.664;9.908;2022-11-30T04:23:23;58.77;;;30.93;;
20363;SDS011;10340;53.664;9.908;2022-11-30T04:25:51;62.07;;;30.93;;
20363;SDS011;10340;53.664;9.908;2022-11-30T04:28:18;61.90;;;31.33;;
20363;SDS011;10340;53.664;9.908;2022-11-30T04:30:46;63.83;;;30.93;;
20363;SDS011;10340;53.664;9.908;2022-11-30T04:33:14;63.67;;;32.17;;
20363;SDS011;10340;53.664;9.908;2022-11-30T04:35:42;68.43;;;31.40;;
20363;SDS011;10340;53.664;9.908;2022-11-30T04:38:10;65.33;;;31.47;;
20363;SDS011;10340;53.664;9.908;2022-11-30T04:40:38;63.90;;;31.03;;
20363;SDS011;10340;53.664;9.908;2022-11-30T04:43:05;59.97;;;30.73;;
20363;SDS011;10340;53.664;9.908;2022-11-30T04:45:32;63.93;;;31.67;;
20363;SDS011;10340;53.664;9.908;2022-11-30T04:48:01;62.13;;;31.13;;
20363;SDS011;10340;53.664;9.908;2022-11-30T04:50:29;61.70;;;30.27;;
20363;SDS011;10340;53.664;9.908;2022-11-30T04:52:56;64.60;;;30.33;;
20363;SDS011;10340;53.664;9.908;2022-11-30T04:55:23;63.53;;;30.40;;
20363;SDS011;10340;53.664;9.908;2022-11-30T04:57:50;63.67;;;30.30;;
20363;SDS011;10340;53.664;9.908;2022-11-30T05:00:17;68.57;;;32.20;;
20363;SDS011;10340;53.664;9.908;2022-11-30T05:02:45;67.23;;;30.50;;
20363;SDS011;10340;53.664;9.908;2022-11-30T05:05:13;65.37;;;31.20;;
20363;SDS011;10340;53.664;9.908;2022-11-30T05:07:40;66.47;;;30.60;;
20363;SDS011;10340;53.664;9.908;2022-11-30T05:10:08;66.40;;;32.37;;
20363;SDS011;10340;53.664;9.908;2022-11-30T05:12:35;64.33;;;29.73;;
20363;SDS011;10340;53.664;9.908;2022-11-30T05:15:02;72.67;;;31.17;;
20363;SDS011;10340;53.664;9.908;2022-11-30T05:17:30;70.53;;;30.47;;
20363;SDS011;10340;53.664;9.908;2022-11-30T05:19:57;69.63;;;30.03;;
20363;SDS011;10340;53.664;9.908;2022-11-30T05:22:25;64.93;;;30.13;;
20363;SDS011;10340;53.664;9.908;2022-11-30T05:24:52;65.07;;;30.70;;
20363;SDS011;10340;53.664;9.908;2022-11-30T05:27:19;67.20;;;32.00;;
20363;SDS011;10340;53.664;9.908;2022-11-30T05:29:46;62.93;;;28.73;;
20363;SDS011;10340;53.664;9.908;2022-11-30T05:32:13;60.00;;;29.87;;
20363;SDS011;10340;53.664;9.908;2022-11-30T05:34:40;62.47;;;31.70;;
20363;SDS011;10340;53.664;9.908;2022-11-30T05:37:07;61.80;;;31.77;;
20363;SDS011;10340;53.664;9.908;2022-11-30T05:39:35;61.60;;;29.40;;
20363;SDS011;10340;53.664;9.908;2022-11-30T05:42:02;63.23;;;29.10;;
20363;SDS011;10340;53.664;9.908;2022-11-30T05:44:29;65.67;;;30.53;;
20363;SDS011;10340;53.664;9.908;2022-11-30T05:46:56;65.07;;;30.47;;
20363;SDS011;10340;53.664;9.908;2022-11-30T05:49:23;62.03;;;29.00;;
20363;SDS011;10340;53.664;9.908;2022-11-30T05:51:50;65.13;;;30.00;;
20363;SDS011;10340;53.664;9.908;2022-11-30T05:54:17;62.43;;;29.23;;
20363;SDS011;10340;53.664;9.908;2022-11-30T05:56:46;55.00;;;28.27;;
20363;SDS011;10340;53.664;9.908;2022-11-30T05:59:15;54.60;;;28.40;;
20363;SDS011;10340;53.664;9.908;2022-11-30T06:01:42;63.57;;;31.00;;
20363;SDS011;10340;53.664;9.908;2022-11-30T06:04:08;66.63;;;30.20;;
20363;SDS011;10340;53.664;9.908;2022-11-30T06:06:35;58.20;;;27.60;;
20363;SDS011;10340;53.664;9.908;2022-11-30T06:09:03;60.70;;;29.67;;
20363;SDS011;10340;53.664;9.908;2022-11-30T06:11:30;69.47;;;30.73;;
20363;SDS011;10340;53.664;9.908;2022-11-30T06:13:58;60.57;;;29.43;;
20363;SDS011;10340;53.664;9.908;2022-11-30T06:16:25;63.67;;;29.47;;
20363;SDS011;10340;53.664;9.908;2022-11-30T06:18:52;55.03;;;28.03;;
20363;SDS011;10340;53.664;9.908;2022-11-30T06:21:19;55.63;;;28.53;;
20363;SDS011;10340;53.664;9.908;2022-11-30T06:23:46;58.17;;;27.73;;
20363;SDS011;10340;53.664;9.908;2022-11-30T06:26:13;71.83;;;31.30;;
20363;SDS011;10340;53.664;9.908;2022-11-30T06:28:40;62.03;;;30.17;;
20363;SDS011;10340;53.664;9.908;2022-11-30T06:31:08;60.63;;;28.47;;
20363;SDS011;10340;53.664;9.908;2022-11-30T06:33:35;63.10;;;29.37;;
20363;SDS011;10340;53.664;9.908;2022-11-30T06:36:03;62.90;;;29.03;;
20363;SDS011;10340;53.664;9.908;2022-11-30T06:38:30;62.93;;;32.57;;
20363;SDS011;10340;53.664;9.908;2022-11-30T06:41:01;61.00;;;28.50;;
20363;SDS011;10340;53.664;9.908;2022-11-30T06:43:31;60.47;;;28.37;;
20363;SDS011;10340;53.664;9.908;2022-11-30T06:45:59;55.40;;;27.97;;
20363;SDS011;10340;53.664;9.908;2022-11-30T06:48:29;53.73;;;27.37;;
20363;SDS011;10340;53.664;9.908;2022-11-30T06:50:56;61.60;;;29.07;;
20363;SDS011;10340;53.664;9.908;2022-11-30T06:53:24;62.87;;;30.27;;
20363;SDS011;10340;53.664;9.908;2022-11-30T06:55:52;62.13;;;30.00;;
20363;SDS011;10340;53.664;9.908;2022-11-30T06:58:19;60.63;;;29.50;;
20363;SDS011;10340;53.664;9.908;2022-11-30T07:00:46;64.37;;;30.50;;
20363;SDS011;10340;53.664;9.908;2022-11-30T07:03:13;57.03;;;29.77;;
20363;SDS011;10340;53.664;9.908;2022-11-30T07:05:42;61.00;;;31.10;;
20363;SDS011;10340;53.664;9.908;2022-11-30T07:08:11;66.67;;;30.13;;
20363;SDS011;10340;53.664;9.908;2022-11-30T07:10:39;60.77;;;28.60;;
20363;SDS011;10340;53.664;9.908;2022-11-30T07:13:08;64.07;;;29.13;;
20363;SDS011;10340;53.664;9.908;2022-11-30T07:15:36;57.27;;;29.00;;
20363;SDS011;10340;53.664;9.908;2022-11-30T07:18:03;64.60;;;29.97;;
20363;SDS011;10340;53.664;9.908;2022-11-30T07:20:30;60.93;;;29.90;;
20363;SDS011;10340;53.664;9.908;2022-11-30T07:22:59;63.40;;;30.07;;
20363;SDS011;10340;53.664;9.908;2022-11-30T07:25:47;59.47;;;30.03;;
20363;SDS011;10340;53.664;9.908;2022-11-30T07:28:33;64.20;;;30.17;;
20363;SDS011;10340;53.664;9.908;2022-11-30T07:31:11;57.10;;;28.60;;
20363;SDS011;10340;53.664;9.908;2022-11-30T07:33:39;59.63;;;30.07;;
20363;SDS011;10340;53.664;9.908;2022-11-30T07:36:06;67.63;;;31.67;;
20363;SDS011;10340;53.664;9.908;2022-11-30T07:38:35;64.77;;;30.57;;
20363;SDS011;10340;53.664;9.908;2022-11-30T07:41:03;64.53;;;30.10;;
20363;SDS011;10340;53.664;9.908;2022-11-30T07:43:31;62.70;;;30.63;;
20363;SDS011;10340;53.664;9.908;2022-11-30T07:45:58;61.43;;;29.40;;
20363;SDS011;10340;53.664;9.908;2022-11-30T07:48:25;68.60;;;30.77;;
20363;SDS011;10340;53.664;9.908;2022-11-30T07:50:52;57.50;;;28.80;;
20363;SDS011;10340;53.664;9.908;2022-11-30T07:53:20;62.87;;;28.97;;
20363;SDS011;10340;53.664;9.908;2022-11-30T07:55:48;58.47;;;27.83;;
20363;SDS011;10340;53.664;9.908;2022-11-30T07:58:15;51.90;;;28.53;;
20363;SDS011;10340;53.664;9.908;2022-11-30T08:00:42;57.87;;;29.77;;
20363;SDS011;10340;53.664;9.908;2022-11-30T08:03:09;64.67;;;30.60;;
20363;SDS011;10340;53.664;9.908;2022-11-30T08:05:36;70.27;;;32.87;;
20363;SDS011;10340;53.664;9.908;2022-11-30T08:08:03;64.03;;;30.20;;
20363;SDS011;10340;53.664;9.908;2022-11-30T08:10:30;67.47;;;31.33;;
20363;SDS011;10340;53.664;9.908;2022-11-30T08:12:59;63.50;;;31.17;;
20363;SDS011;10340;53.664;9.908;2022-11-30T08:15:26;61.50;;;30.10;;
20363;SDS011;10340;53.664;9.908;2022-11-30T08:17:53;64.93;;;30.57;;
20363;SDS011;10340;53.664;9.908;2022-11-30T08:20:20;64.57;;;30.80;;
20363;SDS011;10340;53.664;9.908;2022-11-30T08:22:47;62.40;;;30.27;;
20363;SDS011;10340;53.664;9.908;2022-11-30T08:25:16;62.50;;;27.30;;
20363;SDS011;10340;53.664;9.908;2022-11-30T08:27:43;58.37;;;29.83;;
20363;SDS011;10340;53.664;9.908;2022-11-30T08:30:12;61.33;;;30.37;;
20363;SDS011;10340;53.664;9.908;2022-11-30T08:32:39;63.33;;;31.03;;
20363;SDS011;10340;53.664;9.908;2022-11-30T08:35:06;67.67;;;32.67;;
20363;SDS011;10340;53.664;9.908;2022-11-30T08:37:34;67.77;;;31.30;;
20363;SDS011;10340;53.664;9.908;2022-11-30T08:40:03;67.20;;;31.67;;
20363;SDS011;10340;53.664;9.908;2022-11-30T08:42:31;65.93;;;31.27;;
20363;SDS011;10340;53.664;9.908;2022-11-30T08:44:58;74.63;;;32.37;;
20363;SDS011;10340;53.664;9.908;2022-11-30T08:47:28;72.57;;;32.57;;
20363;SDS011;10340;53.664;9.908;2022-11-30T08:49:55;68.73;;;32.37;;
20363;SDS011;10340;53.664;9.908;2022-11-30T08:52:23;70.27;;;31.77;;
20363;SDS011;10340;53.664;9.908;2022-11-30T08:54:50;67.37;;;31.60;;
20363;SDS011;10340;53.664;9.908;2022-11-30T08:57:17;69.57;;;32.03;;
20363;SDS011;10340;53.664;9.908;2022-11-30T08:59:46;68.53;;;31.00;;
20363;SDS011;10340;53.664;9.908;2022-11-30T09:02:14;62.43;;;31.13;;
20363;SDS011;10340;53.664;9.908;2022-11-30T09:04:44;63.97;;;30.20;;
20363;SDS011;10340;53.664;9.908;2022-11-30T09:07:12;62.93;;;30.47;;
20363;SDS011;10340;53.664;9.908;2022-11-30T09:09:40;61.40;;;29.87;;
20363;SDS011;10340;53.664;9.908;2022-11-30T09:12:06;58.73;;;30.37;;
20363;SDS011;10340;53.664;9.908;2022-11-30T09:14:33;64.73;;;30.93;;
20363;SDS011;10340;53.664;9.908;2022-11-30T09:17:00;65.13;;;30.30;;
20363;SDS011;10340;53.664;9.908;2022-11-30T09:19:28;63.83;;;30.53;;
20363;SDS011;10340;53.664;9.908;2022-11-30T09:21:56;54.83;;;29.47;;
20363;SDS011;10340;53.664;9.908;2022-11-30T09:24:24;61.00;;;29.53;;
20363;SDS011;10340;53.664;9.908;2022-11-30T09:26:53;60.60;;;29.77;;
20363;SDS011;10340;53.664;9.908;2022-11-30T09:29:21;59.13;;;28.80;;
20363;SDS011;10340;53.664;9.908;2022-11-30T09:31:48;57.57;;;29.93;;
20363;SDS011;10340;53.664;9.908;2022-11-30T09:34:15;55.87;;;29.60;;
20363;SDS011;10340;53.664;9.908;2022-11-30T09:36:42;55.30;;;28.00;;
20363;SDS011;10340;53.664;9.908;2022-11-30T09:39:11;59.43;;;29.17;;
20363;SDS011;10340;53.664;9.908;2022-11-30T09:44:42;53.30;;;27.33;;
20363;SDS011;10340;53.664;9.908;2022-11-30T09:47:24;52.30;;;26.67;;
20363;SDS011;10340;53.664;9.908;2022-11-30T09:50:02;49.80;;;28.07;;
20363;SDS011;10340;53.664;9.908;2022-11-30T09:52:36;47.80;;;26.93;;
20363;SDS011;10340;53.664;9.908;2022-11-30T09:55:09;54.83;;;27.77;;
20363;SDS011;10340;53.664;9.908;2022-11-30T09:57:41;53.70;;;27.30;;
20363;SDS011;10340;53.664;9.908;2022-11-30T10:00:14;49.43;;;26.83;;
20363;SDS011;10340;53.664;9.908;2022-11-30T10:02:43;51.60;;;26.00;;
20363;SDS011;10340;53.664;9.908;2022-11-30T10:05:11;45.93;;;26.53;;
20363;SDS011;10340;53.664;9.908;2022-11-30T10:10:39;50.50;;;27.63;;
20363;SDS011;10340;53.664;9.908;2022-11-30T10:13:16;43.93;;;25.57;;
20363;SDS011;10340;53.664;9.908;2022-11-30T10:15:55;42.63;;;26.00;;
20363;SDS011;10340;53.664;9.908;2022-11-30T10:18:32;47.40;;;26.50;;
20363;SDS011;10340;53.664;9.908;2022-11-30T10:21:12;51.57;;;25.77;;
20363;SDS011;10340;53.664;9.908;2022-11-30T10:23:50;41.97;;;24.20;;
20363;SDS011;10340;53.664;9.908;2022-11-30T10:26:31;47.50;;;25.60;;
20363;SDS011;10340;53.664;9.908;2022-11-30T10:29:00;45.63;;;25.87;;
20363;SDS011;10340;53.664;9.908;2022-11-30T10:31:36;39.67;;;25.20;;
20363;SDS011;10340;53.664;9.908;2022-11-30T10:34:11;45.00;;;26.43;;
20363;SDS011;10340;53.664;9.908;2022-11-30T10:36:45;42.73;;;24.07;;
20363;SDS011;10340;53.664;9.908;2022-11-30T10:39:17;42.53;;;25.00;;
20363;SDS011;10340;53.664;9.908;2022-11-30T10:41:49;47.77;;;27.20;;
20363;SDS011;10340;53.664;9.908;2022-11-30T10:44:19;40.53;;;24.07;;
20363;SDS011;10340;53.664;9.908;2022-11-30T10:46:51;43.23;;;24.83;;
20363;SDS011;10340;53.664;9.908;2022-11-30T10:49:21;40.93;;;24.50;;
20363;SDS011;10340;53.664;9.908;2022-11-30T10:51:51;43.37;;;25.10;;
20363;SDS011;10340;53.664;9.908;2022-11-30T10:54:20;40.77;;;25.20;;
20363;SDS011;10340;53.664;9.908;2022-11-30T10:56:50;40.97;;;24.23;;
20363;SDS011;10340;53.664;9.908;2022-11-30T10:59:17;41.97;;;25.50;;
20363;SDS011;10340;53.664;9.908;2022-11-30T11:01:48;44.13;;;26.07;;
20363;SDS011;10340;53.664;9.908;2022-11-30T11:04:17;40.07;;;24.77;;
20363;SDS011;10340;53.664;9.908;2022-11-30T11:06:47;44.77;;;25.03;;
20363;SDS011;10340;53.664;9.908;2022-11-30T11:09:33;40.80;;;23.87;;
20363;SDS011;10340;53.664;9.908;2022-11-30T11:12:04;42.00;;;26.27;;
20363;SDS011;10340;53.664;9.908;2022-11-30T11:14:32;41.27;;;26.20;;
20363;SDS011;10340;53.664;9.908;2022-11-30T11:17:00;38.00;;;23.33;;
20363;SDS011;10340;53.664;9.908;2022-11-30T11:19:30;42.30;;;25.23;;
20363;SDS011;10340;53.664;9.908;2022-11-30T11:22:00;40.67;;;24.73;;
20363;SDS011;10340;53.664;9.908;2022-11-30T11:24:29;42.73;;;24.93;;
20363;SDS011;10340;53.664;9.908;2022-11-30T11:26:57;40.30;;;24.23;;
20363;SDS011;10340;53.664;9.908;2022-11-30T11:29:27;38.57;;;24.80;;
20363;SDS011;10340;53.664;9.908;2022-11-30T11:32:15;38.13;;;23.33;;
20363;SDS011;10340;53.664;9.908;2022-11-30T11:34:45;44.23;;;25.17;;
20363;SDS011;10340;53.664;9.908;2022-11-30T11:37:15;41.03;;;24.03;;
20363;SDS011;10340;53.664;9.908;2022-11-30T11:39:59;42.37;;;25.27;;
20363;SDS011;10340;53.664;9.908;2022-11-30T11:42:29;42.83;;;24.57;;
20363;SDS011;10340;53.664;9.908;2022-11-30T11:45:00;41.83;;;24.47;;
20363;SDS011;10340;53.664;9.908;2022-11-30T11:47:32;46.37;;;27.30;;
20363;SDS011;10340;53.664;9.908;2022-11-30T11:53:05;40.73;;;25.00;;
20363;SDS011;10340;53.664;9.908;2022-11-30T11:55:46;40.57;;;25.13;;
20363;SDS011;10340;53.664;9.908;2022-11-30T11:58:17;45.93;;;27.27;;
20363;SDS011;10340;53.664;9.908;2022-11-30T12:00:53;39.97;;;25.80;;
20363;SDS011;10340;53.664;9.908;2022-11-30T12:03:24;44.87;;;25.77;;
20363;SDS011;10340;53.664;9.908;2022-11-30T12:05:56;39.50;;;24.50;;
20363;SDS011;10340;53.664;9.908;2022-11-30T12:08:30;40.23;;;25.23;;
20363;SDS011;10340;53.664;9.908;2022-11-30T12:11:04;44.50;;;24.17;;
20363;SDS011;10340;53.664;9.908;2022-11-30T12:13:40;41.50;;;25.20;;
20363;SDS011;10340;53.664;9.908;2022-11-30T12:16:17;43.17;;;25.70;;
20363;SDS011;10340;53.664;9.908;2022-11-30T12:18:53;44.47;;;25.13;;
20363;SDS011;10340;53.664;9.908;2022-11-30T12:21:27;42.57;;;25.37;;
20363;SDS011;10340;53.664;9.908;2022-11-30T12:24:15;42.30;;;25.47;;
20363;SDS011;10340;53.664;9.908;2022-11-30T12:27:10;38.97;;;24.67;;
20363;SDS011;10340;53.664;9.908;2022-11-30T12:29:47;39.40;;;24.50;;
20363;SDS011;10340;53.664;9.908;2022-11-30T12:32:28;44.97;;;27.17;;
20363;SDS011;10340;53.664;9.908;2022-11-30T12:35:07;40.57;;;24.63;;
20363;SDS011;10340;53.664;9.908;2022-11-30T12:37:47;40.43;;;24.20;;
20363;SDS011;10340;53.664;9.908;2022-11-30T12:40:25;38.03;;;24.03;;
20363;SDS011;10340;53.664;9.908;2022-11-30T12:43:03;38.07;;;22.93;;
20363;SDS011;10340;53.664;9.908;2022-11-30T12:45:41;39.50;;;23.70;;
20363;SDS011;10340;53.664;9.908;2022-11-30T12:48:19;36.67;;;23.83;;
20363;SDS011;10340;53.664;9.908;2022-11-30T12:50:59;37.50;;;23.40;;
20363;SDS011;10340;53.664;9.908;2022-11-30T12:53:37;34.87;;;22.37;;
20363;SDS011;10340;53.664;9.908;2022-11-30T12:56:14;34.57;;;21.37;;
20363;SDS011;10340;53.664;9.908;2022-11-30T12:58:49;33.07;;;21.00;;
20363;SDS011;10340;53.664;9.908;2022-11-30T13:01:28;33.90;;;21.50;;
20363;SDS011;10340;53.664;9.908;2022-11-30T13:04:08;32.43;;;21.70;;
20363;SDS011;10340;53.664;9.908;2022-11-30T13:06:45;33.70;;;21.13;;
20363;SDS011;10340;53.664;9.908;2022-11-30T13:09:17;33.63;;;22.10;;
20363;SDS011;10340;53.664;9.908;2022-11-30T13:11:51;34.30;;;20.97;;
20363;SDS011;10340;53.664;9.908;2022-11-30T13:14:22;35.90;;;21.73;;
20363;SDS011;10340;53.664;9.908;2022-11-30T13:16:55;36.77;;;22.10;;
20363;SDS011;10340;53.664;9.908;2022-11-30T13:19:40;32.10;;;22.20;;
20363;SDS011;10340;53.664;9.908;2022-11-30T13:22:16;34.37;;;21.70;;
20363;SDS011;10340;53.664;9.908;2022-11-30T13:24:50;33.93;;;21.87;;
20363;SDS011;10340;53.664;9.908;2022-11-30T13:27:25;37.40;;;23.13;;
20363;SDS011;10340;53.664;9.908;2022-11-30T13:32:45;33.87;;;21.17;;
20363;SDS011;10340;53.664;9.908;2022-11-30T13:38:13;35.23;;;22.73;;
20363;SDS011;10340;53.664;9.908;2022-11-30T13:40:51;35.17;;;23.73;;
20363;SDS011;10340;53.664;9.908;2022-11-30T13:43:20;37.93;;;21.70;;
20363;SDS011;10340;53.664;9.908;2022-11-30T13:45:48;39.30;;;22.97;;
20363;SDS011;10340;53.664;9.908;2022-11-30T13:48:29;37.13;;;22.93;;
20363;SDS011;10340;53.664;9.908;2022-11-30T13:51:00;35.10;;;21.27;;
20363;SDS011;10340;53.664;9.908;2022-11-30T13:53:27;37.13;;;22.30;;
20363;SDS011;10340;53.664;9.908;2022-11-30T13:55:59;36.60;;;22.80;;
20363;SDS011;10340;53.664;9.908;2022-11-30T13:58:28;36.60;;;23.07;;
20363;SDS011;10340;53.664;9.908;2022-11-30T14:01:03;35.50;;;22.83;;
20363;SDS011;10340;53.664;9.908;2022-11-30T14:06:49;34.97;;;21.97;;
20363;SDS011;10340;53.664;9.908;2022-11-30T14:15:25;40.07;;;22.73;;
20363;SDS011;10340;53.664;9.908;2022-11-30T14:18:18;34.63;;;21.33;;
20363;SDS011;10340;53.664;9.908;2022-11-30T14:20:53;33.77;;;21.73;;
20363;SDS011;10340;53.664;9.908;2022-11-30T14:23:26;35.03;;;21.13;;
20363;SDS011;10340;53.664;9.908;2022-11-30T14:26:02;32.43;;;20.93;;
20363;SDS011;10340;53.664;9.908;2022-11-30T14:28:33;36.00;;;20.93;;
20363;SDS011;10340;53.664;9.908;2022-11-30T14:31:05;34.47;;;21.03;;
20363;SDS011;10340;53.664;9.908;2022-11-30T14:33:38;33.90;;;21.43;;
20363;SDS011;10340;53.664;9.908;2022-11-30T14:36:08;32.27;;;19.97;;
20363;SDS011;10340;53.664;9.908;2022-11-30T14:38:39;37.30;;;21.60;;
20363;SDS011;10340;53.664;9.908;2022-11-30T14:41:17;34.30;;;21.03;;
20363;SDS011;10340;53.664;9.908;2022-11-30T14:43:58;35.67;;;21.40;;
20363;SDS011;10340;53.664;9.908;2022-11-30T14:46:30;34.77;;;20.27;;
20363;SDS011;10340;53.664;9.908;2022-11-30T14:49:03;32.80;;;20.47;;
20363;SDS011;10340;53.664;9.908;2022-11-30T14:51:40;31.77;;;20.20;;
20363;SDS011;10340;53.664;9.908;2022-11-30T14:57:13;35.77;;;20.60;;
20363;SDS011;10340;53.664;9.908;2022-11-30T14:59:47;35.30;;;21.73;;
20363;SDS011;10340;53.664;9.908;2022-11-30T15:02:24;38.10;;;21.93;;
20363;SDS011;10340;53.664;9.908;2022-11-30T15:04:54;36.70;;;21.90;;
20363;SDS011;10340;53.664;9.908;2022-11-30T15:07:23;36.33;;;21.17;;